QTR3M OTHH-OMDB
Flight info
| Callsign | QTR3M |
|---|---|
| Flight time | 0h 41m |
| Altitude | 21000 |
| Route | ALSEM L305 ITBUL M677 VUTEB |
| Aircraft | A333/H-SDE3GHIJ2J3J5M1RVWXY/LB2D1 |
Departure
| Time | 2026-05-04 13:48 |
|---|---|
| Airport | Hamad International Airport (OTHH) |
Arrival
| Time | 2026-05-04 14:30 |
|---|---|
| Airport | Dubai International Airport (OMDB) |
| Time | Latitude | Longitude | Altitude | Speed | Heading |
|---|---|---|---|---|---|
| 2026-05-04 13:26 | 25.27023 | 51.61349 | 34 ft | 0 kts | 300° |
| 2026-05-04 13:38 | 25.27012 | 51.61370 | 32 ft | 3 kts | 300° |
| 2026-05-04 13:38 | 25.27002 | 51.61389 | 33 ft | 3 kts | 300° |
| 2026-05-04 13:38 | 25.26992 | 51.61409 | 33 ft | 3 kts | 300° |
| 2026-05-04 13:38 | 25.26978 | 51.61429 | 32 ft | 4 kts | 339° |
| 2026-05-04 13:39 | 25.26948 | 51.61427 | 31 ft | 4 kts | 20° |
| 2026-05-04 13:39 | 25.26944 | 51.61426 | 31 ft | 0 kts | 20° |
| 2026-05-04 13:43 | 25.26966 | 51.61438 | 31 ft | 8 kts | 29° |
| 2026-05-04 13:43 | 25.27012 | 51.61500 | 34 ft | 12 kts | 63° |
| 2026-05-04 13:43 | 25.27025 | 51.61590 | 34 ft | 9 kts | 111° |
| 2026-05-04 13:44 | 25.26992 | 51.61654 | 34 ft | 12 kts | 101° |
| 2026-05-04 13:44 | 25.26959 | 51.61740 | 33 ft | 13 kts | 132° |
| 2026-05-04 13:44 | 25.26900 | 51.61772 | 33 ft | 13 kts | 160° |
| 2026-05-04 13:44 | 25.26770 | 51.61829 | 33 ft | 27 kts | 158° |
| 2026-05-04 13:45 | 25.26579 | 51.61912 | 33 ft | 30 kts | 159° |
| 2026-05-04 13:45 | 25.26385 | 51.61998 | 34 ft | 30 kts | 158° |
| 2026-05-04 13:45 | 25.26195 | 51.62081 | 34 ft | 30 kts | 159° |
| 2026-05-04 13:45 | 25.26002 | 51.62167 | 34 ft | 30 kts | 158° |
| 2026-05-04 13:46 | 25.25809 | 51.62251 | 33 ft | 30 kts | 158° |
| 2026-05-04 13:46 | 25.25632 | 51.62329 | 33 ft | 20 kts | 158° |
| 2026-05-04 13:46 | 25.25587 | 51.62429 | 32 ft | 13 kts | 79° |
| 2026-05-04 13:46 | 25.25624 | 51.62522 | 31 ft | 15 kts | 58° |
| 2026-05-04 13:47 | 25.25712 | 51.62583 | 30 ft | 16 kts | 6° |
| 2026-05-04 13:47 | 25.25813 | 51.62559 | 30 ft | 11 kts | 339° |
| 2026-05-04 13:47 | 25.25917 | 51.62514 | 31 ft | 36 kts | 339° |
| 2026-05-04 13:47 | 25.26348 | 51.62326 | 31 ft | 95 kts | 339° |
| 2026-05-04 13:48 | 25.27128 | 51.61981 | 29 ft | 144 kts | 339° |
| 2026-05-04 13:48 | 25.28168 | 51.61518 | 179 ft | 175 kts | 339° |
| 2026-05-04 13:48 | 25.29362 | 51.60996 | 538 ft | 196 kts | 339° |
| 2026-05-04 13:48 | 25.30629 | 51.60483 | 1361 ft | 187 kts | 348° |
| 2026-05-04 13:49 | 25.31940 | 51.60587 | 2016 ft | 198 kts | 14° |
| 2026-05-04 13:49 | 25.33306 | 51.61166 | 2277 ft | 223 kts | 24° |
| 2026-05-04 13:49 | 25.34604 | 51.62247 | 2595 ft | 246 kts | 47° |
| 2026-05-04 13:49 | 25.35422 | 51.63971 | 3127 ft | 261 kts | 66° |
| 2026-05-04 13:50 | 25.35880 | 51.65926 | 3739 ft | 269 kts | 75° |
| 2026-05-04 13:50 | 25.36130 | 51.67996 | 4408 ft | 275 kts | 80° |
| 2026-05-04 13:50 | 25.36283 | 51.70125 | 5046 ft | 280 kts | 82° |
| 2026-05-04 13:50 | 25.36416 | 51.72303 | 5677 ft | 287 kts | 81° |
| 2026-05-04 13:51 | 25.36566 | 51.74515 | 6335 ft | 291 kts | 81° |
| 2026-05-04 13:51 | 25.36744 | 51.76761 | 7033 ft | 294 kts | 81° |
| 2026-05-04 13:51 | 25.36947 | 51.79024 | 7759 ft | 297 kts | 80° |
| 2026-05-04 13:51 | 25.37169 | 51.81318 | 8501 ft | 302 kts | 80° |
| 2026-05-04 13:52 | 25.37648 | 51.86004 | 9963 ft | 311 kts | 80° |
| 2026-05-04 13:52 | 25.37899 | 51.88427 | 10468 ft | 325 kts | 81° |
| 2026-05-04 13:52 | 25.38166 | 51.90990 | 10740 ft | 346 kts | 81° |
| 2026-05-04 13:53 | 25.38447 | 51.93710 | 10983 ft | 365 kts | 81° |
| 2026-05-04 13:53 | 25.38738 | 51.96571 | 11247 ft | 381 kts | 81° |
| 2026-05-04 13:53 | 25.39030 | 51.99479 | 11683 ft | 389 kts | 82° |
| 2026-05-04 13:54 | 25.39626 | 52.05492 | 12857 ft | 397 kts | 82° |
| 2026-05-04 13:54 | 25.39927 | 52.08536 | 13460 ft | 400 kts | 82° |
| 2026-05-04 13:54 | 25.40540 | 52.14713 | 14492 ft | 407 kts | 82° |
| 2026-05-04 13:55 | 25.40849 | 52.17825 | 15004 ft | 410 kts | 83° |
| 2026-05-04 13:55 | 25.41475 | 52.24150 | 16012 ft | 417 kts | 83° |
| 2026-05-04 13:55 | 25.41792 | 52.27359 | 16519 ft | 421 kts | 83° |
| 2026-05-04 13:56 | 25.42110 | 52.30589 | 17005 ft | 424 kts | 83° |
| 2026-05-04 13:56 | 25.42430 | 52.33851 | 17489 ft | 428 kts | 83° |
| 2026-05-04 13:56 | 25.43076 | 52.40445 | 18389 ft | 434 kts | 84° |
| 2026-05-04 13:57 | 25.43402 | 52.43778 | 18849 ft | 436 kts | 84° |
| 2026-05-04 13:57 | 25.43728 | 52.47125 | 19283 ft | 439 kts | 84° |
| 2026-05-04 13:58 | 25.44644 | 52.57263 | 20469 ft | 448 kts | 85° |
| 2026-05-04 13:58 | 25.45183 | 52.64183 | 21280 ft | 453 kts | 85° |
| 2026-05-04 13:58 | 25.45457 | 52.67666 | 21674 ft | 456 kts | 85° |
| 2026-05-04 13:59 | 25.45734 | 52.71172 | 22076 ft | 459 kts | 85° |
| 2026-05-04 13:59 | 25.46013 | 52.74704 | 22468 ft | 462 kts | 85° |
| 2026-05-04 13:59 | 25.46575 | 52.81835 | 23232 ft | 468 kts | 85° |
| 2026-05-04 14:00 | 25.46858 | 52.85425 | 23570 ft | 471 kts | 85° |
| 2026-05-04 14:00 | 25.47427 | 52.92699 | 24148 ft | 478 kts | 85° |
| 2026-05-04 14:00 | 25.47713 | 52.96375 | 24452 ft | 481 kts | 85° |
| 2026-05-04 14:01 | 25.48000 | 53.00065 | 24745 ft | 484 kts | 85° |
| 2026-05-04 14:01 | 25.48288 | 53.03786 | 25035 ft | 487 kts | 85° |
| 2026-05-04 14:01 | 25.48867 | 53.11309 | 25592 ft | 493 kts | 85° |
| 2026-05-04 14:02 | 25.49157 | 53.15096 | 25730 ft | 498 kts | 85° |
| 2026-05-04 14:02 | 25.49452 | 53.18955 | 25742 ft | 508 kts | 85° |
| 2026-05-04 14:02 | 25.49751 | 53.22883 | 25730 ft | 513 kts | 85° |
| 2026-05-04 14:02 | 25.50048 | 53.26796 | 25269 ft | 508 kts | 85° |
| 2026-05-04 14:03 | 25.50342 | 53.30683 | 24593 ft | 505 kts | 85° |
| 2026-05-04 14:03 | 25.50633 | 53.34542 | 24048 ft | 499 kts | 85° |
| 2026-05-04 14:03 | 25.50918 | 53.38340 | 23506 ft | 492 kts | 85° |
| 2026-05-04 14:03 | 25.51199 | 53.42096 | 22873 ft | 487 kts | 85° |
| 2026-05-04 14:04 | 25.51745 | 53.49444 | 21474 ft | 478 kts | 85° |
| 2026-05-04 14:04 | 25.52015 | 53.53091 | 20966 ft | 472 kts | 85° |
| 2026-05-04 14:04 | 25.52282 | 53.56708 | 20768 ft | 471 kts | 85° |
| 2026-05-04 14:05 | 25.52813 | 53.63950 | 20744 ft | 471 kts | 85° |
| 2026-05-04 14:05 | 25.53077 | 53.67563 | 20744 ft | 470 kts | 85° |
| 2026-05-04 14:05 | 25.53340 | 53.71179 | 20730 ft | 470 kts | 85° |
| 2026-05-04 14:06 | 25.53601 | 53.74779 | 20735 ft | 470 kts | 85° |
| 2026-05-04 14:06 | 25.53863 | 53.78402 | 20748 ft | 470 kts | 85° |
| 2026-05-04 14:06 | 25.54120 | 53.81966 | 20735 ft | 471 kts | 85° |
| 2026-05-04 14:06 | 25.54379 | 53.85580 | 20734 ft | 471 kts | 85° |
| 2026-05-04 14:07 | 25.54641 | 53.89240 | 20732 ft | 471 kts | 85° |
| 2026-05-04 14:07 | 25.54898 | 53.92852 | 20732 ft | 471 kts | 85° |
| 2026-05-04 14:07 | 25.55155 | 53.96464 | 20742 ft | 471 kts | 85° |
| 2026-05-04 14:07 | 25.55410 | 54.00075 | 20736 ft | 471 kts | 85° |
| 2026-05-04 14:08 | 25.55665 | 54.03691 | 20732 ft | 471 kts | 85° |
| 2026-05-04 14:08 | 25.55916 | 54.07254 | 20741 ft | 471 kts | 85° |
| 2026-05-04 14:08 | 25.56172 | 54.10912 | 20743 ft | 470 kts | 85° |
| 2026-05-04 14:08 | 25.56421 | 54.14478 | 20742 ft | 470 kts | 85° |
| 2026-05-04 14:09 | 25.56922 | 54.21704 | 20724 ft | 469 kts | 85° |
| 2026-05-04 14:09 | 25.57169 | 54.25278 | 20248 ft | 464 kts | 85° |
| 2026-05-04 14:10 | 25.57655 | 54.32365 | 18905 ft | 457 kts | 84° |
| 2026-05-04 14:10 | 25.57894 | 54.35870 | 18286 ft | 453 kts | 84° |
| 2026-05-04 14:10 | 25.58129 | 54.39323 | 17620 ft | 448 kts | 84° |
| 2026-05-04 14:10 | 25.58361 | 54.42745 | 16957 ft | 443 kts | 84° |
| 2026-05-04 14:11 | 25.58589 | 54.46128 | 16299 ft | 438 kts | 84° |
| 2026-05-04 14:11 | 25.59035 | 54.52770 | 15039 ft | 427 kts | 84° |
| 2026-05-04 14:11 | 25.59254 | 54.56039 | 14414 ft | 422 kts | 84° |
| 2026-05-04 14:12 | 25.59469 | 54.59265 | 13795 ft | 417 kts | 84° |
| 2026-05-04 14:12 | 25.59681 | 54.62449 | 13135 ft | 413 kts | 84° |
| 2026-05-04 14:12 | 25.60096 | 54.68735 | 11739 ft | 405 kts | 83° |
| 2026-05-04 14:13 | 25.60302 | 54.71853 | 11047 ft | 402 kts | 83° |
| 2026-05-04 14:13 | 25.60501 | 54.74887 | 10461 ft | 397 kts | 83° |
| 2026-05-04 14:13 | 25.60699 | 54.77920 | 10111 ft | 394 kts | 83° |
| 2026-05-04 14:13 | 25.60896 | 54.80948 | 10003 ft | 392 kts | 83° |
| 2026-05-04 14:14 | 25.61086 | 54.83887 | 10023 ft | 370 kts | 83° |
| 2026-05-04 14:14 | 25.60250 | 54.89183 | 10003 ft | 338 kts | 110° |
| 2026-05-04 14:14 | 25.59329 | 54.91505 | 10007 ft | 320 kts | 112° |
| 2026-05-04 14:15 | 25.57598 | 54.95797 | 10004 ft | 292 kts | 111° |
| 2026-05-04 14:15 | 25.55982 | 54.99893 | 10004 ft | 290 kts | 111° |
| 2026-05-04 14:16 | 25.54304 | 55.03960 | 10002 ft | 291 kts | 116° |
| 2026-05-04 14:16 | 25.53319 | 55.05913 | 10000 ft | 291 kts | 118° |
| 2026-05-04 14:17 | 25.51296 | 55.09801 | 9737 ft | 294 kts | 118° |
| 2026-05-04 14:17 | 25.50274 | 55.11763 | 9432 ft | 293 kts | 118° |
| 2026-05-04 14:17 | 25.48275 | 55.15605 | 8906 ft | 286 kts | 118° |
| 2026-05-04 14:18 | 25.47287 | 55.17505 | 8608 ft | 283 kts | 117° |
| 2026-05-04 14:18 | 25.45080 | 55.21088 | 8041 ft | 282 kts | 129° |
| 2026-05-04 14:19 | 25.42461 | 55.24313 | 7997 ft | 283 kts | 130° |
| 2026-05-04 14:19 | 25.41136 | 55.25930 | 7996 ft | 283 kts | 130° |
| 2026-05-04 14:19 | 25.39817 | 55.27542 | 7993 ft | 282 kts | 131° |
| 2026-05-04 14:19 | 25.38507 | 55.29148 | 7993 ft | 281 kts | 131° |
| 2026-05-04 14:20 | 25.37221 | 55.30723 | 7995 ft | 269 kts | 131° |
| 2026-05-04 14:20 | 25.36007 | 55.32234 | 7992 ft | 259 kts | 127° |
| 2026-05-04 14:20 | 25.34975 | 55.33850 | 7920 ft | 257 kts | 121° |
| 2026-05-04 14:21 | 25.33093 | 55.37219 | 7412 ft | 254 kts | 119° |
| 2026-05-04 14:21 | 25.32187 | 55.38861 | 7186 ft | 252 kts | 119° |
| 2026-05-04 14:21 | 25.31263 | 55.40528 | 6940 ft | 251 kts | 119° |
| 2026-05-04 14:21 | 25.30350 | 55.42173 | 6713 ft | 250 kts | 119° |
| 2026-05-04 14:22 | 25.29445 | 55.43802 | 6508 ft | 247 kts | 120° |
| 2026-05-04 14:22 | 25.28545 | 55.45419 | 6264 ft | 246 kts | 119° |
| 2026-05-04 14:22 | 25.27646 | 55.47033 | 5968 ft | 248 kts | 119° |
| 2026-05-04 14:22 | 25.26732 | 55.48680 | 5509 ft | 257 kts | 120° |
| 2026-05-04 14:23 | 25.24825 | 55.52110 | 4542 ft | 261 kts | 120° |
| 2026-05-04 14:23 | 25.23876 | 55.53814 | 4069 ft | 259 kts | 119° |
| 2026-05-04 14:23 | 25.22932 | 55.55511 | 3483 ft | 260 kts | 120° |
| 2026-05-04 14:24 | 25.21992 | 55.57199 | 2905 ft | 262 kts | 121° |
| 2026-05-04 14:24 | 25.21022 | 55.58932 | 2354 ft | 261 kts | 124° |
| 2026-05-04 14:24 | 25.19783 | 55.60272 | 2048 ft | 247 kts | 153° |
| 2026-05-04 14:24 | 25.18198 | 55.60728 | 1866 ft | 228 kts | 186° |
| 2026-05-04 14:25 | 25.16762 | 55.60184 | 1964 ft | 216 kts | 220° |
| 2026-05-04 14:25 | 25.15650 | 55.57292 | 1991 ft | 212 kts | 270° |
| 2026-05-04 14:25 | 25.15651 | 55.55645 | 2005 ft | 213 kts | 272° |
| 2026-05-04 14:26 | 25.15888 | 55.54064 | 1998 ft | 211 kts | 286° |
| 2026-05-04 14:26 | 25.16233 | 55.53041 | 2002 ft | 210 kts | 294° |
| 2026-05-04 14:26 | 25.17204 | 55.51130 | 1988 ft | 211 kts | 300° |
| 2026-05-04 14:26 | 25.17920 | 55.49796 | 2031 ft | 194 kts | 300° |
| 2026-05-04 14:27 | 25.18377 | 55.48956 | 1982 ft | 185 kts | 300° |
| 2026-05-04 14:27 | 25.19030 | 55.47753 | 1706 ft | 181 kts | 301° |
| 2026-05-04 14:27 | 25.19670 | 55.46585 | 1442 ft | 175 kts | 301° |
| 2026-05-04 14:27 | 25.20273 | 55.45492 | 1230 ft | 163 kts | 300° |
| 2026-05-04 14:28 | 25.20836 | 55.44472 | 1030 ft | 147 kts | 300° |
| 2026-05-04 14:28 | 25.21345 | 55.43550 | 870 ft | 135 kts | 300° |
| 2026-05-04 14:28 | 25.21830 | 55.42675 | 712 ft | 131 kts | 299° |
| 2026-05-04 14:28 | 25.22307 | 55.41817 | 554 ft | 132 kts | 297° |
| 2026-05-04 14:29 | 25.23268 | 55.40078 | 211 ft | 132 kts | 298° |
| 2026-05-04 14:29 | 25.24141 | 55.38491 | 29 ft | 91 kts | 302° |
| 2026-05-04 14:30 | 25.24365 | 55.38087 | 29 ft | 34 kts | 301° |
| 2026-05-04 14:30 | 25.24409 | 55.38007 | 29 ft | 13 kts | 301° |
| 2026-05-04 14:30 | 25.24361 | 55.37841 | 31 ft | 12 kts | 219° |
| 2026-05-04 14:31 | 25.24343 | 55.37768 | 26 ft | 6 kts | 289° |
| 2026-05-04 14:31 | 25.24389 | 55.37666 | 27 ft | 9 kts | 297° |
| 2026-05-04 14:32 | 25.24498 | 55.37484 | 29 ft | 27 kts | 300° |
| 2026-05-04 14:32 | 25.24612 | 55.37281 | 30 ft | 27 kts | 302° |
| 2026-05-04 14:32 | 25.24669 | 55.37182 | 26 ft | 14 kts | 302° |
| 2026-05-04 14:32 | 25.24681 | 55.37161 | 29 ft | 0 kts | 302° |
| 2026-05-04 14:34 | 25.24705 | 55.37118 | 30 ft | 13 kts | 302° |
| 2026-05-04 14:34 | 25.24763 | 55.37014 | 31 ft | 17 kts | 302° |
| 2026-05-04 14:34 | 25.24811 | 55.36921 | 27 ft | 8 kts | 291° |
| 2026-05-04 14:34 | 25.24841 | 55.36864 | 29 ft | 16 kts | 293° |
| 2026-05-04 14:35 | 25.24886 | 55.36689 | 26 ft | 29 kts | 291° |
| 2026-05-04 14:35 | 25.24983 | 55.36506 | 28 ft | 28 kts | 301° |
| 2026-05-04 14:35 | 25.25084 | 55.36324 | 28 ft | 27 kts | 302° |
| 2026-05-04 14:35 | 25.25184 | 55.36147 | 31 ft | 27 kts | 301° |
| 2026-05-04 14:36 | 25.25283 | 55.35970 | 28 ft | 27 kts | 302° |
| 2026-05-04 14:36 | 25.25383 | 55.35793 | 29 ft | 27 kts | 301° |
| 2026-05-04 14:36 | 25.25481 | 55.35619 | 30 ft | 27 kts | 302° |
| 2026-05-04 14:36 | 25.25578 | 55.35446 | 30 ft | 27 kts | 302° |
| 2026-05-04 14:37 | 25.25674 | 55.35275 | 26 ft | 21 kts | 301° |
| 2026-05-04 14:37 | 25.25734 | 55.35168 | 29 ft | 13 kts | 302° |
| 2026-05-04 14:37 | 25.25780 | 55.35083 | 27 ft | 12 kts | 294° |
| 2026-05-04 14:37 | 25.25756 | 55.35002 | 26 ft | 11 kts | 222° |
| 2026-05-04 14:38 | 25.25693 | 55.34956 | 29 ft | 11 kts | 211° |
| 2026-05-04 14:38 | 25.25624 | 55.34910 | 30 ft | 12 kts | 211° |
| 2026-05-04 14:38 | 25.25549 | 55.34860 | 29 ft | 12 kts | 211° |
| 2026-05-04 14:38 | 25.25517 | 55.34825 | 30 ft | 5 kts | 250° |
| 2026-05-04 14:39 | 25.25516 | 55.34802 | 29 ft | 2 kts | 287° |
| 2026-05-04 14:39 | 25.25522 | 55.34788 | 28 ft | 2 kts | 298° |
| 2026-05-04 14:39 | 25.25542 | 55.34752 | 30 ft | 6 kts | 301° |
| 2026-05-04 14:40 | 25.25550 | 55.34737 | 30 ft | 0 kts | 301° |